createdAt,value
2019-02-08T00:00:27.720Z,0.00
2019-02-08T00:02:59.853Z,0.00
2019-02-08T00:05:32.198Z,0.00
2019-02-08T00:08:04.552Z,0.00
2019-02-08T00:10:36.902Z,0.00
2019-02-08T00:13:09.019Z,0.00
2019-02-08T00:15:41.243Z,0.00
2019-02-08T00:18:13.997Z,0.00
2019-02-08T00:20:46.402Z,0.00
2019-02-08T00:23:26.207Z,0.00
2019-02-08T00:25:53.000Z,0.00
2019-02-08T00:28:25.339Z,0.00
2019-02-08T00:30:57.454Z,0.00
2019-02-08T00:33:29.510Z,0.00
2019-02-08T00:36:01.575Z,0.00
2019-02-08T00:38:34.389Z,0.00
2019-02-08T00:41:06.890Z,0.00
2019-02-08T00:43:39.220Z,0.00
2019-02-08T00:46:11.294Z,0.00
2019-02-08T00:48:43.356Z,0.00
2019-02-08T00:51:15.610Z,0.03
2019-02-08T00:53:48.049Z,8.44
2019-02-08T00:56:20.434Z,11.14
2019-02-08T00:58:52.623Z,9.86
2019-02-08T01:01:25.035Z,10.39
2019-02-08T01:03:57.389Z,13.53
2019-02-08T01:06:29.469Z,22.29
2019-02-08T01:09:01.610Z,25.96
2019-02-08T01:11:33.961Z,29.01
2019-02-08T01:14:06.134Z,30.70
2019-02-08T01:16:38.270Z,32.63
2019-02-08T01:19:10.489Z,34.51
2019-02-08T01:21:42.930Z,35.78
2019-02-08T01:24:15.269Z,38.05
2019-02-08T01:26:47.355Z,40.19
2019-02-08T01:29:19.766Z,41.07
2019-02-08T01:31:52.124Z,49.04
2019-02-08T01:34:24.963Z,54.13
2019-02-08T01:36:57.057Z,55.61
2019-02-08T01:39:29.178Z,57.51
2019-02-08T01:42:01.322Z,59.66
2019-02-08T01:44:33.681Z,61.34
2019-02-08T01:47:06.369Z,62.23
2019-02-08T01:49:57.763Z,62.59
2019-02-08T01:52:29.843Z,63.01
2019-02-08T01:55:01.902Z,63.80
2019-02-08T01:57:34.414Z,63.61
2019-02-08T02:00:16.991Z,63.23
2019-02-08T02:02:49.072Z,64.22
2019-02-08T02:05:21.516Z,64.95
2019-02-08T02:07:54.034Z,64.94
2019-02-08T02:10:36.098Z,65.72
2019-02-08T02:13:09.303Z,65.71
2019-02-08T02:15:42.479Z,63.71
2019-02-08T02:18:15.289Z,63.49
2019-02-08T02:20:47.345Z,63.07
2019-02-08T02:23:19.446Z,63.64
2019-02-08T02:25:51.583Z,63.55
2019-02-08T02:28:23.668Z,63.47
2019-02-08T02:30:55.760Z,63.03
2019-02-08T02:33:28.209Z,62.32
2019-02-08T02:36:00.539Z,61.96
2019-02-08T02:38:32.625Z,60.99
2019-02-08T02:41:05.043Z,60.42
2019-02-08T02:43:37.491Z,59.63
2019-02-08T02:46:10.052Z,58.72
2019-02-08T02:48:42.805Z,59.28
2019-02-08T02:51:15.254Z,58.28
2019-02-08T02:53:47.726Z,61.00
2019-02-08T02:56:20.061Z,60.81
2019-02-08T02:58:52.144Z,61.53
2019-02-08T03:01:24.192Z,62.02
2019-02-08T03:03:56.281Z,62.41
2019-02-08T03:06:28.438Z,62.69
2019-02-08T03:09:00.607Z,63.35
2019-02-08T03:11:33.081Z,63.28
2019-02-08T03:14:05.546Z,63.70
2019-02-08T03:16:37.876Z,64.11
2019-02-08T03:19:10.061Z,63.44
2019-02-08T03:21:42.190Z,62.83
2019-02-08T03:24:14.320Z,64.13
2019-02-08T03:26:46.677Z,64.04
2019-02-08T03:29:19.044Z,63.61
2019-02-08T03:31:51.505Z,63.98
2019-02-08T03:34:23.856Z,63.78
2019-02-08T03:36:55.930Z,64.06
2019-02-08T03:39:28.037Z,64.70
2019-02-08T03:42:00.099Z,64.42
2019-02-08T03:44:32.164Z,64.17
2019-02-08T03:47:04.237Z,64.04
2019-02-08T03:49:37.000Z,64.20
2019-02-08T03:52:09.173Z,64.59
2019-02-08T03:54:41.256Z,64.10
2019-02-08T03:57:13.327Z,64.17
2019-02-08T03:59:45.943Z,64.24
2019-02-08T04:02:18.408Z,63.70
2019-02-08T04:04:50.758Z,63.70
2019-02-08T04:07:23.099Z,63.20
2019-02-08T04:09:55.181Z,62.88
2019-02-08T04:12:27.245Z,62.08
2019-02-08T04:14:59.317Z,63.24
2019-02-08T04:17:31.391Z,62.93
2019-02-08T04:20:03.466Z,63.35
2019-02-08T04:22:36.116Z,62.98
2019-02-08T04:25:09.478Z,63.19
2019-02-08T04:27:41.578Z,63.13
2019-02-08T04:30:19.251Z,63.23
2019-02-08T04:32:51.309Z,63.72
2019-02-08T04:35:23.851Z,64.18
2019-02-08T04:37:56.276Z,64.42
2019-02-08T04:40:29.237Z,63.59
2019-02-08T04:43:01.610Z,63.99
2019-02-08T04:45:33.656Z,64.21
2019-02-08T04:48:06.125Z,63.88
2019-02-08T04:50:38.494Z,63.73
2019-02-08T04:53:10.558Z,63.85
2019-02-08T04:55:42.898Z,64.59
2019-02-08T04:58:15.620Z,67.11
2019-02-08T05:00:47.969Z,67.19
2019-02-08T05:03:20.027Z,67.20
2019-02-08T05:05:52.118Z,66.91
2019-02-08T05:08:24.189Z,66.18
2019-02-08T05:10:56.572Z,65.98
2019-02-08T05:13:29.248Z,65.61
2019-02-08T05:16:01.698Z,65.33
2019-02-08T05:18:34.038Z,65.38
2019-02-08T05:21:06.136Z,65.92
2019-02-08T05:23:38.447Z,65.82
2019-02-08T05:26:11.182Z,65.46
2019-02-08T05:28:44.377Z,65.50
2019-02-08T05:31:16.546Z,65.43
2019-02-08T05:33:48.617Z,65.57
2019-02-08T05:36:21.553Z,65.61
2019-02-08T05:38:53.965Z,65.68
2019-02-08T05:41:26.450Z,65.58
2019-02-08T05:43:59.226Z,66.03
2019-02-08T05:46:32.421Z,66.05
2019-02-08T05:49:05.199Z,66.17
2019-02-08T05:51:37.721Z,66.36
2019-02-08T05:54:10.116Z,66.42
2019-02-08T05:56:42.473Z,66.44
2019-02-08T05:59:14.573Z,66.39
2019-02-08T06:01:46.635Z,66.56
2019-02-08T06:04:18.710Z,66.77
2019-02-08T06:06:51.408Z,67.91
2019-02-08T06:09:23.873Z,68.25
2019-02-08T06:11:56.217Z,68.48
2019-02-08T06:14:28.276Z,68.24
2019-02-08T06:17:00.387Z,68.40
2019-02-08T06:19:32.483Z,68.40
2019-02-08T06:22:04.762Z,68.39
2019-02-08T06:24:37.145Z,68.42
2019-02-08T06:27:09.350Z,68.50
2019-02-08T06:29:41.696Z,68.57
2019-02-08T06:32:13.750Z,68.32
2019-02-08T06:34:45.838Z,68.16
2019-02-08T06:37:17.897Z,67.91
2019-02-08T06:39:49.968Z,67.98
2019-02-08T06:42:22.046Z,67.80
2019-02-08T06:44:54.111Z,67.65
2019-02-08T06:47:26.363Z,67.41
2019-02-08T06:49:58.830Z,67.31
2019-02-08T06:52:31.512Z,67.23
2019-02-08T06:55:10.612Z,67.31
2019-02-08T06:57:46.059Z,66.98
2019-02-08T07:00:42.621Z,67.08
2019-02-08T07:03:33.586Z,67.05
2019-02-08T07:06:24.792Z,67.13
2019-02-08T07:09:18.803Z,67.12
2019-02-08T07:12:08.605Z,67.10
2019-02-08T07:14:58.250Z,67.00
2019-02-08T07:18:01.350Z,67.00
2019-02-08T07:21:00.766Z,67.52
2019-02-08T07:23:57.497Z,67.62
2019-02-08T07:26:57.532Z,67.58
2019-02-08T07:29:47.097Z,67.56
2019-02-08T07:32:30.054Z,67.60
2019-02-08T07:35:33.636Z,67.58
2019-02-08T07:38:15.144Z,67.80
2019-02-08T07:41:20.654Z,67.95
2019-02-08T07:44:16.879Z,68.15
2019-02-08T07:47:07.251Z,68.16
2019-02-08T07:49:55.268Z,68.27
2019-02-08T07:52:45.346Z,68.36
2019-02-08T07:55:38.354Z,68.56
2019-02-08T07:58:35.681Z,69.51
2019-02-08T08:01:42.194Z,69.82
2019-02-08T08:04:31.985Z,70.80
2019-02-08T08:07:18.599Z,70.83
2019-02-08T08:10:08.486Z,74.76
2019-02-08T08:12:53.057Z,75.17
2019-02-08T08:15:41.617Z,75.10
2019-02-08T08:18:37.019Z,74.99
2019-02-08T08:21:43.162Z,74.81
2019-02-08T08:24:37.726Z,74.65
2019-02-08T08:27:24.528Z,74.33
2019-02-08T08:30:11.636Z,74.22
2019-02-08T08:33:23.967Z,73.87
2019-02-08T08:36:37.697Z,73.68
2019-02-08T08:40:15.057Z,73.38
2019-02-08T08:43:51.887Z,73.06
2019-02-08T08:46:59.956Z,72.69
2019-02-08T08:50:07.415Z,72.23
2019-02-08T08:53:31.127Z,71.92
2019-02-08T08:56:56.546Z,71.42
2019-02-08T09:00:36.986Z,70.49
2019-02-08T09:04:19.592Z,69.46
2019-02-08T09:07:53.577Z,67.89
2019-02-08T09:11:28.239Z,66.15
2019-02-08T09:14:59.294Z,64.55
2019-02-08T09:18:40.260Z,62.24
2019-02-08T09:22:07.911Z,60.04
2019-02-08T09:25:40.619Z,57.08
2019-02-08T09:29:06.640Z,55.50
2019-02-08T09:32:29.972Z,54.18
2019-02-08T09:35:48.591Z,52.58
2019-02-08T09:39:27.932Z,51.62
2019-02-08T09:43:02.429Z,52.38
2019-02-08T09:46:15.475Z,54.33
2019-02-08T09:49:49.707Z,54.39
2019-02-08T09:53:23.103Z,54.68
2019-02-08T09:57:01.787Z,53.25
2019-02-08T10:00:01.461Z,50.09
2019-02-08T10:03:18.268Z,46.41
2019-02-08T10:07:06.755Z,46.20
2019-02-08T10:11:03.696Z,44.41
2019-02-08T10:14:56.310Z,42.83
2019-02-08T10:18:33.371Z,49.83
2019-02-08T10:22:13.873Z,59.99
2019-02-08T10:25:39.400Z,66.22
2019-02-08T10:29:23.935Z,67.85
2019-02-08T10:32:54.808Z,66.09
2019-02-08T10:36:20.929Z,74.67
2019-02-08T10:39:43.614Z,82.59
2019-02-08T10:42:59.082Z,91.03
2019-02-08T10:46:26.425Z,99.80
2019-02-08T10:50:08.398Z,100.00
2019-02-08T10:53:53.263Z,100.00
2019-02-08T10:57:27.900Z,100.00
2019-02-08T11:00:56.695Z,100.00
2019-02-08T11:04:27.780Z,100.00
2019-02-08T11:08:08.797Z,100.00
2019-02-08T11:12:01.278Z,100.00
2019-02-08T11:15:44.692Z,100.00
2019-02-08T11:19:19.274Z,100.00
2019-02-08T11:21:53.832Z,100.00
2019-02-08T11:24:28.464Z,100.00
2019-02-08T11:27:03.172Z,100.00
2019-02-08T11:29:35.844Z,100.00
2019-02-08T11:32:09.395Z,100.00
2019-02-08T11:34:42.112Z,99.91
2019-02-08T11:37:14.750Z,97.59
2019-02-08T11:39:47.199Z,95.91
2019-02-08T11:42:19.550Z,93.73
2019-02-08T11:44:51.617Z,92.10
2019-02-08T11:47:23.684Z,90.55
2019-02-08T11:49:55.748Z,89.41
2019-02-08T11:52:27.801Z,88.29
2019-02-08T11:54:59.872Z,86.88
2019-02-08T11:57:32.285Z,85.42
2019-02-08T12:00:06.340Z,84.95
2019-02-08T12:02:40.598Z,83.29
2019-02-08T12:05:14.002Z,83.58
2019-02-08T12:07:46.357Z,82.84
2019-02-08T12:10:18.741Z,81.18
2019-02-08T12:12:51.093Z,80.04
2019-02-08T12:15:24.204Z,80.12
2019-02-08T12:17:56.275Z,78.80
2019-02-08T12:20:28.343Z,78.20
2019-02-08T12:23:00.402Z,77.82
2019-02-08T12:25:32.471Z,76.90
2019-02-08T12:28:04.934Z,77.26
2019-02-08T12:30:39.878Z,76.42
2019-02-08T12:33:12.529Z,76.38
2019-02-08T12:35:44.887Z,76.45
2019-02-08T12:38:16.942Z,75.80
2019-02-08T12:40:49.098Z,76.40
2019-02-08T12:43:21.460Z,75.67
2019-02-08T12:45:53.798Z,75.70
2019-02-08T12:48:26.478Z,76.52
2019-02-08T12:50:58.798Z,76.02
2019-02-08T12:53:31.562Z,75.27
2019-02-08T12:56:04.234Z,75.20
2019-02-08T12:58:36.671Z,74.52
2019-02-08T13:01:09.017Z,74.08
2019-02-08T13:03:41.441Z,73.88
2019-02-08T13:06:13.787Z,73.49
2019-02-08T13:08:46.492Z,74.50
2019-02-08T13:11:18.813Z,74.24
2019-02-08T13:13:51.221Z,73.47
2019-02-08T13:16:23.664Z,73.82
2019-02-08T13:18:56.392Z,72.99
2019-02-08T13:21:28.717Z,73.08
2019-02-08T13:24:00.842Z,73.60
2019-02-08T13:26:33.256Z,73.23
2019-02-08T13:29:06.296Z,73.28
2019-02-08T13:31:38.345Z,72.98
2019-02-08T13:34:11.078Z,73.16
2019-02-08T13:36:43.427Z,73.00
2019-02-08T13:39:15.877Z,73.04
2019-02-08T13:41:48.360Z,74.01
2019-02-08T13:44:21.001Z,72.37
2019-02-08T13:46:53.416Z,72.72
2019-02-08T13:49:26.070Z,73.56
2019-02-08T13:51:58.446Z,72.44
2019-02-08T13:54:30.915Z,72.77
2019-02-08T13:57:04.100Z,72.94
2019-02-08T13:59:35.082Z,71.66
2019-02-08T14:02:07.043Z,72.72
2019-02-08T14:04:39.166Z,72.12
2019-02-08T14:07:11.490Z,72.90
2019-02-08T14:09:43.845Z,72.29
2019-02-08T14:12:16.160Z,73.20
2019-02-08T14:14:48.931Z,73.26
2019-02-08T14:17:21.282Z,73.73
2019-02-08T14:19:53.622Z,74.06
2019-02-08T14:22:26.071Z,73.45
2019-02-08T14:24:58.390Z,74.05
2019-02-08T14:27:30.726Z,73.94
2019-02-08T14:30:03.290Z,73.68
2019-02-08T14:32:35.876Z,74.09
2019-02-08T14:35:10.548Z,74.77
2019-02-08T14:37:43.554Z,74.90
2019-02-08T14:40:20.399Z,75.40
2019-02-08T14:42:53.226Z,75.87
2019-02-08T14:45:25.575Z,75.54
2019-02-08T14:47:57.895Z,75.06
2019-02-08T14:50:30.001Z,75.18
2019-02-08T14:53:02.628Z,75.59
2019-02-08T14:55:35.251Z,75.94
2019-02-08T14:58:09.786Z,76.09
2019-02-08T15:00:42.605Z,76.00
2019-02-08T15:03:15.280Z,76.08
2019-02-08T15:05:47.682Z,76.90
2019-02-08T15:08:20.329Z,76.91
2019-02-08T15:10:53.313Z,77.22
2019-02-08T15:13:25.644Z,77.54
2019-02-08T15:15:57.896Z,77.67
2019-02-08T15:18:30.299Z,77.77
2019-02-08T15:21:02.813Z,78.39
2019-02-08T15:23:37.523Z,79.27
2019-02-08T15:26:10.082Z,78.99
2019-02-08T15:28:42.455Z,79.58
2019-02-08T15:31:14.525Z,79.77
2019-02-08T15:33:46.635Z,79.87
2019-02-08T15:36:19.280Z,80.11
2019-02-08T15:38:51.333Z,80.37
2019-02-08T15:41:23.416Z,80.64
2019-02-08T15:43:55.842Z,80.76
2019-02-08T15:46:28.264Z,80.66
2019-02-08T15:49:00.606Z,80.72
2019-02-08T15:51:32.838Z,82.11
2019-02-08T15:54:05.500Z,81.96
2019-02-08T15:56:38.001Z,82.54
2019-02-08T15:59:10.329Z,82.58
2019-02-08T16:01:42.800Z,83.39
2019-02-08T16:04:15.119Z,83.11
2019-02-08T16:06:47.542Z,83.52
2019-02-08T16:09:19.874Z,84.14
2019-02-08T16:11:51.998Z,84.70
2019-02-08T16:14:24.179Z,85.40
2019-02-08T16:16:56.574Z,85.12
2019-02-08T16:19:28.617Z,85.77
2019-02-08T16:22:00.687Z,86.06
2019-02-08T16:24:32.862Z,86.52
2019-02-08T16:27:06.033Z,86.59
2019-02-08T16:29:38.645Z,87.11
2019-02-08T16:32:10.638Z,87.25
2019-02-08T16:34:42.899Z,87.99
2019-02-08T16:37:15.250Z,88.52
2019-02-08T16:39:47.336Z,88.95
2019-02-08T16:42:19.417Z,89.52
2019-02-08T16:44:51.470Z,89.89
2019-02-08T16:47:23.624Z,89.87
2019-02-08T16:49:56.154Z,90.48
2019-02-08T16:52:28.798Z,90.79
2019-02-08T16:55:01.135Z,91.22
2019-02-08T16:57:33.327Z,91.64
2019-02-08T17:00:14.892Z,92.20
2019-02-08T17:02:47.805Z,92.67
2019-02-08T17:05:21.508Z,92.97
2019-02-08T17:07:54.145Z,93.19
2019-02-08T17:10:26.644Z,93.64
2019-02-08T17:12:59.123Z,93.87
2019-02-08T17:15:31.714Z,94.41
2019-02-08T17:18:04.392Z,94.83
2019-02-08T17:20:40.409Z,95.38
2019-02-08T17:23:13.067Z,95.76
2019-02-08T17:25:45.127Z,96.12
2019-02-08T17:28:17.757Z,96.40
2019-02-08T17:30:50.193Z,96.69
2019-02-08T17:33:22.541Z,97.02
2019-02-08T17:35:54.994Z,97.32
2019-02-08T17:38:28.428Z,97.71
2019-02-08T17:41:01.246Z,97.99
2019-02-08T17:43:34.179Z,98.21
2019-02-08T17:46:07.252Z,98.53
2019-02-08T17:48:39.614Z,98.79
2019-02-08T17:51:11.692Z,98.97
2019-02-08T17:53:43.910Z,99.26
2019-02-08T17:56:16.245Z,99.46
2019-02-08T17:58:48.388Z,99.76
2019-02-08T18:01:20.699Z,100.00
2019-02-08T18:03:53.153Z,100.00
2019-02-08T18:06:25.912Z,100.00
2019-02-08T18:08:58.395Z,100.00
2019-02-08T18:11:30.795Z,100.00
2019-02-08T18:14:03.307Z,100.00
2019-02-08T18:16:35.630Z,100.00
2019-02-08T18:19:07.705Z,100.00
2019-02-08T18:21:39.748Z,100.00
2019-02-08T18:24:12.713Z,100.00
2019-02-08T18:26:45.224Z,100.00
2019-02-08T18:29:17.651Z,100.00
2019-02-08T18:31:50.007Z,100.00
2019-02-08T18:34:22.125Z,100.00
2019-02-08T18:36:54.208Z,100.00
2019-02-08T18:39:26.868Z,100.00
2019-02-08T18:41:58.945Z,100.00
2019-02-08T18:44:31.744Z,100.00
2019-02-08T18:47:04.191Z,100.00
2019-02-08T18:49:36.540Z,100.00
2019-02-08T18:52:09.012Z,100.00
2019-02-08T18:54:41.551Z,100.00
2019-02-08T18:57:13.939Z,100.00
2019-02-08T18:59:46.377Z,100.00
2019-02-08T19:02:19.067Z,100.00
2019-02-08T19:04:51.427Z,100.00
2019-02-08T19:07:23.520Z,100.00
2019-02-08T19:09:55.913Z,100.00
2019-02-08T19:12:28.265Z,100.00
2019-02-08T19:15:00.521Z,100.00
2019-02-08T19:17:33.261Z,100.00
2019-02-08T19:20:06.666Z,100.00
2019-02-08T19:22:39.734Z,100.00
2019-02-08T19:25:16.478Z,100.00
2019-02-08T19:27:49.124Z,100.00
2019-02-08T19:30:25.136Z,100.00
2019-02-08T19:32:57.777Z,100.00
2019-02-08T19:35:29.964Z,100.00
2019-02-08T19:38:02.037Z,100.00
2019-02-08T19:40:37.508Z,100.00
2019-02-08T19:43:10.382Z,100.00
2019-02-08T19:45:42.869Z,100.00
2019-02-08T19:48:15.228Z,100.00
2019-02-08T19:50:48.056Z,100.00
2019-02-08T19:53:20.412Z,100.00
2019-02-08T19:55:52.525Z,100.00
2019-02-08T19:58:24.927Z,100.00
2019-02-08T20:00:57.328Z,100.00
2019-02-08T20:03:29.431Z,100.00
2019-02-08T20:06:02.942Z,100.00
2019-02-08T20:08:35.646Z,100.00
2019-02-08T20:11:08.013Z,100.00
2019-02-08T20:13:40.119Z,100.00
2019-02-08T20:16:12.203Z,100.00
2019-02-08T20:18:44.330Z,100.00
2019-02-08T20:21:16.687Z,100.00
2019-02-08T20:23:49.236Z,100.00
2019-02-08T20:26:21.583Z,100.00
2019-02-08T20:28:53.654Z,100.00
2019-02-08T20:31:26.299Z,100.00
2019-02-08T20:33:58.426Z,100.00
2019-02-08T20:36:30.620Z,100.00
2019-02-08T20:39:03.276Z,100.00
2019-02-08T20:41:35.869Z,100.00
2019-02-08T20:44:08.317Z,100.00
2019-02-08T20:46:40.807Z,100.00
2019-02-08T20:49:13.263Z,100.00
2019-02-08T20:51:45.676Z,100.00
2019-02-08T20:54:17.828Z,100.00
2019-02-08T20:56:50.032Z,100.00
2019-02-08T20:59:22.711Z,100.00
2019-02-08T21:01:55.244Z,100.00
2019-02-08T21:04:28.302Z,100.00
2019-02-08T21:07:00.810Z,100.00
2019-02-08T21:09:33.561Z,100.00
2019-02-08T21:12:06.383Z,100.00
2019-02-08T21:14:39.373Z,100.00
2019-02-08T21:17:12.027Z,100.00
2019-02-08T21:19:44.545Z,100.00
2019-02-08T21:22:17.070Z,100.00
2019-02-08T21:24:50.451Z,100.00
2019-02-08T21:27:24.163Z,100.00
2019-02-08T21:29:56.818Z,100.00
2019-02-08T21:32:29.206Z,100.00
2019-02-08T21:35:01.878Z,100.00
2019-02-08T21:37:34.584Z,100.00
2019-02-08T21:40:10.116Z,100.00
2019-02-08T21:42:43.128Z,100.00
2019-02-08T21:45:21.668Z,100.00
2019-02-08T21:47:55.223Z,100.00
2019-02-08T21:50:27.817Z,100.00
2019-02-08T21:53:00.535Z,100.00
2019-02-08T21:55:33.418Z,100.00
2019-02-08T21:58:06.556Z,100.00
2019-02-08T22:00:41.381Z,100.00
2019-02-08T22:03:14.200Z,100.00
2019-02-08T22:05:55.967Z,100.00
2019-02-08T22:08:28.644Z,100.00
2019-02-08T22:11:00.697Z,100.00
2019-02-08T22:13:33.187Z,100.00
2019-02-08T22:16:06.519Z,100.00
2019-02-08T22:18:37.545Z,100.00
2019-02-08T22:21:09.640Z,100.00
2019-02-08T22:23:42.009Z,100.00
2019-02-08T22:26:14.051Z,100.00
2019-02-08T22:28:46.983Z,100.00
2019-02-08T22:31:19.315Z,100.00
2019-02-08T22:33:51.390Z,100.00
2019-02-08T22:36:23.445Z,100.00
2019-02-08T22:38:56.084Z,100.00
2019-02-08T22:41:28.198Z,100.00
2019-02-08T22:44:00.443Z,100.00
2019-02-08T22:46:33.177Z,100.00
2019-02-08T22:49:05.847Z,100.00
2019-02-08T22:51:38.278Z,100.00
2019-02-08T22:54:10.436Z,100.00
2019-02-08T22:56:42.793Z,100.00
2019-02-08T22:59:21.805Z,100.00
2019-02-08T23:01:53.159Z,100.00
2019-02-08T23:04:25.620Z,99.99
2019-02-08T23:06:58.040Z,99.84
2019-02-08T23:09:30.484Z,99.90
2019-02-08T23:12:03.454Z,99.84
2019-02-08T23:14:36.136Z,99.79
2019-02-08T23:17:08.774Z,99.78
2019-02-08T23:19:42.387Z,99.69
2019-02-08T23:22:14.771Z,99.63
2019-02-08T23:24:47.215Z,99.61
2019-02-08T23:27:19.596Z,99.55
2019-02-08T23:29:51.662Z,99.42
2019-02-08T23:32:24.052Z,99.27
2019-02-08T23:34:56.405Z,99.20
2019-02-08T23:37:28.722Z,99.13
2019-02-08T23:40:01.217Z,99.01
2019-02-08T23:42:33.622Z,98.90
2019-02-08T23:45:08.673Z,98.81
2019-02-08T23:47:40.734Z,98.76
2019-02-08T23:50:12.930Z,98.69
2019-02-08T23:52:45.297Z,98.68
2019-02-08T23:55:17.884Z,98.62
2019-02-08T23:57:50.604Z,98.62
